sensor_id;sensor_type;location;lat;lon;timestamp;P1;durP1;ratioP1;P2;durP2;ratioP2
3379;SDS011;1703;51.964;7.642;2022-12-10T00:00:33;17.30;;;8.30;;
3379;SDS011;1703;51.964;7.642;2022-12-10T00:03:00;21.87;;;11.23;;
3379;SDS011;1703;51.964;7.642;2022-12-10T00:05:27;14.53;;;10.07;;
3379;SDS011;1703;51.964;7.642;2022-12-10T00:07:55;17.97;;;9.03;;
3379;SDS011;1703;51.964;7.642;2022-12-10T00:10:22;18.60;;;11.30;;
3379;SDS011;1703;51.964;7.642;2022-12-10T00:12:49;16.47;;;9.90;;
3379;SDS011;1703;51.964;7.642;2022-12-10T00:15:16;16.80;;;10.17;;
3379;SDS011;1703;51.964;7.642;2022-12-10T00:17:43;14.70;;;11.00;;
3379;SDS011;1703;51.964;7.642;2022-12-10T00:20:10;17.03;;;10.30;;
3379;SDS011;1703;51.964;7.642;2022-12-10T00:22:37;16.27;;;10.00;;
3379;SDS011;1703;51.964;7.642;2022-12-10T00:25:05;21.57;;;12.20;;
3379;SDS011;1703;51.964;7.642;2022-12-10T00:27:33;23.33;;;13.20;;
3379;SDS011;1703;51.964;7.642;2022-12-10T00:29:59;24.97;;;12.60;;
3379;SDS011;1703;51.964;7.642;2022-12-10T00:32:26;25.80;;;13.63;;
3379;SDS011;1703;51.964;7.642;2022-12-10T00:34:53;25.17;;;13.07;;
3379;SDS011;1703;51.964;7.642;2022-12-10T00:37:20;20.77;;;13.17;;
3379;SDS011;1703;51.964;7.642;2022-12-10T00:39:47;26.30;;;14.00;;
3379;SDS011;1703;51.964;7.642;2022-12-10T00:42:15;23.20;;;12.43;;
3379;SDS011;1703;51.964;7.642;2022-12-10T00:44:42;19.20;;;11.97;;
3379;SDS011;1703;51.964;7.642;2022-12-10T00:47:09;24.20;;;14.03;;
3379;SDS011;1703;51.964;7.642;2022-12-10T00:49:36;21.43;;;11.20;;
3379;SDS011;1703;51.964;7.642;2022-12-10T00:52:03;21.40;;;13.20;;
3379;SDS011;1703;51.964;7.642;2022-12-10T00:54:30;18.60;;;10.90;;
3379;SDS011;1703;51.964;7.642;2022-12-10T00:56:57;22.97;;;11.57;;
3379;SDS011;1703;51.964;7.642;2022-12-10T00:59:25;18.47;;;11.03;;
3379;SDS011;1703;51.964;7.642;2022-12-10T01:01:52;23.53;;;12.37;;
3379;SDS011;1703;51.964;7.642;2022-12-10T01:04:19;18.77;;;12.33;;
3379;SDS011;1703;51.964;7.642;2022-12-10T01:06:47;22.67;;;12.10;;
3379;SDS011;1703;51.964;7.642;2022-12-10T01:09:16;19.27;;;11.30;;
3379;SDS011;1703;51.964;7.642;2022-12-10T01:11:45;17.40;;;12.10;;
3379;SDS011;1703;51.964;7.642;2022-12-10T01:14:14;23.50;;;13.63;;
3379;SDS011;1703;51.964;7.642;2022-12-10T01:16:47;20.90;;;10.87;;
3379;SDS011;1703;51.964;7.642;2022-12-10T01:19:15;24.50;;;10.30;;
3379;SDS011;1703;51.964;7.642;2022-12-10T01:21:42;16.23;;;10.00;;
3379;SDS011;1703;51.964;7.642;2022-12-10T01:24:09;14.47;;;9.73;;
3379;SDS011;1703;51.964;7.642;2022-12-10T01:26:36;15.63;;;9.97;;
3379;SDS011;1703;51.964;7.642;2022-12-10T01:29:03;20.03;;;10.93;;
3379;SDS011;1703;51.964;7.642;2022-12-10T01:31:31;17.00;;;10.23;;
3379;SDS011;1703;51.964;7.642;2022-12-10T01:34:01;18.37;;;9.67;;
3379;SDS011;1703;51.964;7.642;2022-12-10T01:36:29;19.20;;;11.63;;
3379;SDS011;1703;51.964;7.642;2022-12-10T01:38:57;14.90;;;9.60;;
3379;SDS011;1703;51.964;7.642;2022-12-10T01:41:25;21.00;;;12.33;;
3379;SDS011;1703;51.964;7.642;2022-12-10T01:43:55;20.80;;;11.33;;
3379;SDS011;1703;51.964;7.642;2022-12-10T01:46:25;25.13;;;11.90;;
3379;SDS011;1703;51.964;7.642;2022-12-10T01:48:55;17.03;;;11.50;;
3379;SDS011;1703;51.964;7.642;2022-12-10T01:51:24;20.33;;;9.87;;
3379;SDS011;1703;51.964;7.642;2022-12-10T01:53:55;14.97;;;10.30;;
3379;SDS011;1703;51.964;7.642;2022-12-10T01:56:22;14.90;;;9.57;;
3379;SDS011;1703;51.964;7.642;2022-12-10T01:58:50;17.00;;;11.00;;
3379;SDS011;1703;51.964;7.642;2022-12-10T02:01:21;20.67;;;11.60;;
3379;SDS011;1703;51.964;7.642;2022-12-10T02:03:56;18.67;;;12.10;;
3379;SDS011;1703;51.964;7.642;2022-12-10T02:06:38;14.53;;;9.97;;
3379;SDS011;1703;51.964;7.642;2022-12-10T02:09:12;19.27;;;10.80;;
3379;SDS011;1703;51.964;7.642;2022-12-10T02:11:48;22.33;;;11.67;;
3379;SDS011;1703;51.964;7.642;2022-12-10T02:14:25;16.70;;;10.43;;
3379;SDS011;1703;51.964;7.642;2022-12-10T02:16:57;20.60;;;10.43;;
3379;SDS011;1703;51.964;7.642;2022-12-10T02:19:33;18.73;;;11.17;;
3379;SDS011;1703;51.964;7.642;2022-12-10T02:22:12;20.10;;;11.77;;
3379;SDS011;1703;51.964;7.642;2022-12-10T02:24:40;17.43;;;11.43;;
3379;SDS011;1703;51.964;7.642;2022-12-10T02:27:10;17.97;;;11.33;;
3379;SDS011;1703;51.964;7.642;2022-12-10T02:29:43;22.20;;;12.10;;
3379;SDS011;1703;51.964;7.642;2022-12-10T02:32:13;14.73;;;10.07;;
3379;SDS011;1703;51.964;7.642;2022-12-10T02:34:43;16.60;;;10.93;;
3379;SDS011;1703;51.964;7.642;2022-12-10T02:37:17;19.63;;;10.67;;
3379;SDS011;1703;51.964;7.642;2022-12-10T02:39:53;17.07;;;10.80;;
3379;SDS011;1703;51.964;7.642;2022-12-10T02:42:24;21.40;;;11.00;;
3379;SDS011;1703;51.964;7.642;2022-12-10T02:44:55;18.93;;;11.00;;
3379;SDS011;1703;51.964;7.642;2022-12-10T02:47:24;19.03;;;10.80;;
3379;SDS011;1703;51.964;7.642;2022-12-10T02:49:53;17.67;;;11.20;;
3379;SDS011;1703;51.964;7.642;2022-12-10T02:52:22;20.37;;;11.50;;
3379;SDS011;1703;51.964;7.642;2022-12-10T02:54:52;17.57;;;10.77;;
3379;SDS011;1703;51.964;7.642;2022-12-10T02:57:30;13.80;;;9.67;;
3379;SDS011;1703;51.964;7.642;2022-12-10T03:00:08;18.10;;;11.10;;
3379;SDS011;1703;51.964;7.642;2022-12-10T03:05:49;18.80;;;11.37;;
3379;SDS011;1703;51.964;7.642;2022-12-10T03:08:23;17.80;;;10.43;;
3379;SDS011;1703;51.964;7.642;2022-12-10T03:10:55;16.30;;;9.57;;
3379;SDS011;1703;51.964;7.642;2022-12-10T03:13:27;23.60;;;13.33;;
3379;SDS011;1703;51.964;7.642;2022-12-10T03:15:57;18.70;;;10.23;;
3379;SDS011;1703;51.964;7.642;2022-12-10T03:18:25;17.60;;;11.10;;
3379;SDS011;1703;51.964;7.642;2022-12-10T03:20:55;21.17;;;12.07;;
3379;SDS011;1703;51.964;7.642;2022-12-10T03:23:28;22.77;;;11.60;;
3379;SDS011;1703;51.964;7.642;2022-12-10T03:25:57;22.70;;;12.40;;
3379;SDS011;1703;51.964;7.642;2022-12-10T03:28:26;19.57;;;12.63;;
3379;SDS011;1703;51.964;7.642;2022-12-10T03:30:58;19.13;;;11.73;;
3379;SDS011;1703;51.964;7.642;2022-12-10T03:33:25;20.27;;;11.47;;
3379;SDS011;1703;51.964;7.642;2022-12-10T03:35:52;21.70;;;11.80;;
3379;SDS011;1703;51.964;7.642;2022-12-10T03:38:19;23.27;;;13.47;;
3379;SDS011;1703;51.964;7.642;2022-12-10T03:40:46;19.73;;;11.80;;
3379;SDS011;1703;51.964;7.642;2022-12-10T03:43:13;18.40;;;12.13;;
3379;SDS011;1703;51.964;7.642;2022-12-10T03:45:40;22.70;;;13.27;;
3379;SDS011;1703;51.964;7.642;2022-12-10T03:48:08;23.53;;;13.57;;
3379;SDS011;1703;51.964;7.642;2022-12-10T03:50:35;19.97;;;12.60;;
3379;SDS011;1703;51.964;7.642;2022-12-10T03:53:01;19.40;;;12.60;;
3379;SDS011;1703;51.964;7.642;2022-12-10T03:55:28;20.07;;;12.23;;
3379;SDS011;1703;51.964;7.642;2022-12-10T03:57:55;15.90;;;11.57;;
3379;SDS011;1703;51.964;7.642;2022-12-10T04:00:22;20.50;;;11.73;;
3379;SDS011;1703;51.964;7.642;2022-12-10T04:02:49;22.20;;;12.93;;
3379;SDS011;1703;51.964;7.642;2022-12-10T04:05:17;22.43;;;13.63;;
3379;SDS011;1703;51.964;7.642;2022-12-10T04:07:44;19.33;;;13.60;;
3379;SDS011;1703;51.964;7.642;2022-12-10T04:10:10;18.23;;;13.67;;
3379;SDS011;1703;51.964;7.642;2022-12-10T04:12:37;21.93;;;12.30;;
3379;SDS011;1703;51.964;7.642;2022-12-10T04:15:05;21.57;;;11.93;;
3379;SDS011;1703;51.964;7.642;2022-12-10T04:17:51;18.60;;;12.77;;
3379;SDS011;1703;51.964;7.642;2022-12-10T04:20:20;29.63;;;14.63;;
3379;SDS011;1703;51.964;7.642;2022-12-10T04:23:04;23.27;;;13.77;;
3379;SDS011;1703;51.964;7.642;2022-12-10T04:25:48;22.20;;;13.20;;
3379;SDS011;1703;51.964;7.642;2022-12-10T04:28:33;21.97;;;14.03;;
3379;SDS011;1703;51.964;7.642;2022-12-10T04:31:00;22.53;;;15.07;;
3379;SDS011;1703;51.964;7.642;2022-12-10T04:33:27;26.30;;;14.70;;
3379;SDS011;1703;51.964;7.642;2022-12-10T04:35:55;24.13;;;12.70;;
3379;SDS011;1703;51.964;7.642;2022-12-10T04:38:21;22.53;;;15.87;;
3379;SDS011;1703;51.964;7.642;2022-12-10T04:40:48;28.03;;;19.10;;
3379;SDS011;1703;51.964;7.642;2022-12-10T04:43:15;28.33;;;18.27;;
3379;SDS011;1703;51.964;7.642;2022-12-10T04:45:42;31.00;;;17.43;;
3379;SDS011;1703;51.964;7.642;2022-12-10T04:48:08;25.00;;;15.03;;
3379;SDS011;1703;51.964;7.642;2022-12-10T04:50:35;24.13;;;15.53;;
3379;SDS011;1703;51.964;7.642;2022-12-10T04:53:03;33.80;;;18.90;;
3379;SDS011;1703;51.964;7.642;2022-12-10T04:55:30;25.37;;;16.03;;
3379;SDS011;1703;51.964;7.642;2022-12-10T04:57:57;21.20;;;14.63;;
3379;SDS011;1703;51.964;7.642;2022-12-10T05:00:24;32.67;;;17.03;;
3379;SDS011;1703;51.964;7.642;2022-12-10T05:02:51;26.17;;;17.80;;
3379;SDS011;1703;51.964;7.642;2022-12-10T05:05:17;26.47;;;15.37;;
3379;SDS011;1703;51.964;7.642;2022-12-10T05:07:44;25.07;;;15.93;;
3379;SDS011;1703;51.964;7.642;2022-12-10T05:10:12;28.53;;;16.60;;
3379;SDS011;1703;51.964;7.642;2022-12-10T05:12:39;29.00;;;16.80;;
3379;SDS011;1703;51.964;7.642;2022-12-10T05:15:06;36.77;;;18.73;;
3379;SDS011;1703;51.964;7.642;2022-12-10T05:17:35;26.93;;;16.90;;
3379;SDS011;1703;51.964;7.642;2022-12-10T05:20:01;32.43;;;18.33;;
3379;SDS011;1703;51.964;7.642;2022-12-10T05:22:29;32.20;;;19.07;;
3379;SDS011;1703;51.964;7.642;2022-12-10T05:25:15;27.17;;;17.40;;
3379;SDS011;1703;51.964;7.642;2022-12-10T05:27:42;28.87;;;18.03;;
3379;SDS011;1703;51.964;7.642;2022-12-10T05:30:09;27.03;;;16.73;;
3379;SDS011;1703;51.964;7.642;2022-12-10T05:32:36;26.70;;;14.97;;
3379;SDS011;1703;51.964;7.642;2022-12-10T05:35:04;31.93;;;17.70;;
3379;SDS011;1703;51.964;7.642;2022-12-10T05:37:31;30.87;;;18.00;;
3379;SDS011;1703;51.964;7.642;2022-12-10T05:39:58;27.97;;;17.70;;
3379;SDS011;1703;51.964;7.642;2022-12-10T05:42:26;30.50;;;18.80;;
3379;SDS011;1703;51.964;7.642;2022-12-10T05:44:53;27.90;;;15.63;;
3379;SDS011;1703;51.964;7.642;2022-12-10T05:47:20;23.77;;;14.40;;
3379;SDS011;1703;51.964;7.642;2022-12-10T05:49:47;28.40;;;15.70;;
3379;SDS011;1703;51.964;7.642;2022-12-10T05:52:14;27.53;;;17.27;;
3379;SDS011;1703;51.964;7.642;2022-12-10T05:54:41;30.13;;;18.77;;
3379;SDS011;1703;51.964;7.642;2022-12-10T05:57:08;25.80;;;16.10;;
3379;SDS011;1703;51.964;7.642;2022-12-10T05:59:36;23.57;;;16.20;;
3379;SDS011;1703;51.964;7.642;2022-12-10T06:02:03;28.10;;;15.53;;
3379;SDS011;1703;51.964;7.642;2022-12-10T06:04:29;23.00;;;14.90;;
3379;SDS011;1703;51.964;7.642;2022-12-10T06:06:56;24.00;;;15.60;;
3379;SDS011;1703;51.964;7.642;2022-12-10T06:09:23;25.00;;;15.90;;
3379;SDS011;1703;51.964;7.642;2022-12-10T06:11:50;22.37;;;14.93;;
3379;SDS011;1703;51.964;7.642;2022-12-10T06:14:16;26.23;;;15.50;;
3379;SDS011;1703;51.964;7.642;2022-12-10T06:16:45;26.97;;;17.50;;
3379;SDS011;1703;51.964;7.642;2022-12-10T06:19:11;24.77;;;15.80;;
3379;SDS011;1703;51.964;7.642;2022-12-10T06:21:38;31.00;;;17.30;;
3379;SDS011;1703;51.964;7.642;2022-12-10T06:24:05;26.97;;;16.87;;
3379;SDS011;1703;51.964;7.642;2022-12-10T06:26:33;25.17;;;16.47;;
3379;SDS011;1703;51.964;7.642;2022-12-10T06:28:59;30.07;;;17.73;;
3379;SDS011;1703;51.964;7.642;2022-12-10T06:31:26;24.97;;;15.80;;
3379;SDS011;1703;51.964;7.642;2022-12-10T06:33:54;29.77;;;17.47;;
3379;SDS011;1703;51.964;7.642;2022-12-10T06:36:21;27.83;;;17.20;;
3379;SDS011;1703;51.964;7.642;2022-12-10T06:38:48;29.57;;;17.67;;
3379;SDS011;1703;51.964;7.642;2022-12-10T06:41:16;31.93;;;17.70;;
3379;SDS011;1703;51.964;7.642;2022-12-10T06:43:45;28.77;;;17.83;;
3379;SDS011;1703;51.964;7.642;2022-12-10T06:46:13;30.50;;;19.40;;
3379;SDS011;1703;51.964;7.642;2022-12-10T06:48:44;28.93;;;17.50;;
3379;SDS011;1703;51.964;7.642;2022-12-10T06:51:14;33.63;;;17.47;;
3379;SDS011;1703;51.964;7.642;2022-12-10T06:53:42;40.33;;;20.57;;
3379;SDS011;1703;51.964;7.642;2022-12-10T06:56:11;29.50;;;18.23;;
3379;SDS011;1703;51.964;7.642;2022-12-10T06:58:39;27.47;;;16.60;;
3379;SDS011;1703;51.964;7.642;2022-12-10T07:01:07;30.43;;;17.80;;
3379;SDS011;1703;51.964;7.642;2022-12-10T07:03:35;31.03;;;19.00;;
3379;SDS011;1703;51.964;7.642;2022-12-10T07:06:03;30.60;;;20.40;;
3379;SDS011;1703;51.964;7.642;2022-12-10T07:08:34;35.10;;;19.77;;
3379;SDS011;1703;51.964;7.642;2022-12-10T07:11:07;33.20;;;20.10;;
3379;SDS011;1703;51.964;7.642;2022-12-10T07:13:53;33.13;;;17.17;;
3379;SDS011;1703;51.964;7.642;2022-12-10T07:16:35;25.23;;;17.77;;
3379;SDS011;1703;51.964;7.642;2022-12-10T07:19:08;29.27;;;17.77;;
3379;SDS011;1703;51.964;7.642;2022-12-10T07:21:51;29.80;;;17.53;;
3379;SDS011;1703;51.964;7.642;2022-12-10T07:24:19;32.00;;;17.50;;
3379;SDS011;1703;51.964;7.642;2022-12-10T07:26:46;31.67;;;19.70;;
3379;SDS011;1703;51.964;7.642;2022-12-10T07:29:13;28.90;;;17.23;;
3379;SDS011;1703;51.964;7.642;2022-12-10T07:31:42;32.33;;;18.70;;
3379;SDS011;1703;51.964;7.642;2022-12-10T07:34:10;29.73;;;17.03;;
3379;SDS011;1703;51.964;7.642;2022-12-10T07:36:37;30.70;;;19.30;;
3379;SDS011;1703;51.964;7.642;2022-12-10T07:39:05;29.07;;;16.43;;
3379;SDS011;1703;51.964;7.642;2022-12-10T07:41:34;33.40;;;19.17;;
3379;SDS011;1703;51.964;7.642;2022-12-10T07:44:01;32.27;;;18.80;;
3379;SDS011;1703;51.964;7.642;2022-12-10T07:46:31;30.43;;;17.13;;
3379;SDS011;1703;51.964;7.642;2022-12-10T07:48:59;26.70;;;17.33;;
3379;SDS011;1703;51.964;7.642;2022-12-10T07:51:26;30.40;;;18.10;;
3379;SDS011;1703;51.964;7.642;2022-12-10T07:53:54;36.30;;;20.33;;
3379;SDS011;1703;51.964;7.642;2022-12-10T07:56:22;38.97;;;19.03;;
3379;SDS011;1703;51.964;7.642;2022-12-10T07:58:50;29.37;;;17.33;;
3379;SDS011;1703;51.964;7.642;2022-12-10T08:01:19;29.63;;;18.40;;
3379;SDS011;1703;51.964;7.642;2022-12-10T08:03:48;28.27;;;17.17;;
3379;SDS011;1703;51.964;7.642;2022-12-10T08:06:16;33.03;;;17.40;;
3379;SDS011;1703;51.964;7.642;2022-12-10T08:08:45;37.23;;;18.80;;
3379;SDS011;1703;51.964;7.642;2022-12-10T08:11:13;28.80;;;16.73;;
3379;SDS011;1703;51.964;7.642;2022-12-10T08:13:41;29.37;;;17.40;;
3379;SDS011;1703;51.964;7.642;2022-12-10T08:16:11;26.47;;;16.30;;
3379;SDS011;1703;51.964;7.642;2022-12-10T08:18:39;30.43;;;18.27;;
3379;SDS011;1703;51.964;7.642;2022-12-10T08:21:07;35.97;;;20.03;;
3379;SDS011;1703;51.964;7.642;2022-12-10T08:23:35;30.70;;;16.70;;
3379;SDS011;1703;51.964;7.642;2022-12-10T08:26:03;33.37;;;19.00;;
3379;SDS011;1703;51.964;7.642;2022-12-10T08:28:30;37.97;;;18.70;;
3379;SDS011;1703;51.964;7.642;2022-12-10T08:30:57;37.77;;;21.50;;
3379;SDS011;1703;51.964;7.642;2022-12-10T08:33:26;37.43;;;20.13;;
3379;SDS011;1703;51.964;7.642;2022-12-10T08:35:56;35.50;;;18.43;;
3379;SDS011;1703;51.964;7.642;2022-12-10T08:38:24;31.33;;;18.40;;
3379;SDS011;1703;51.964;7.642;2022-12-10T08:40:51;30.37;;;18.60;;
3379;SDS011;1703;51.964;7.642;2022-12-10T08:43:18;33.73;;;18.77;;
3379;SDS011;1703;51.964;7.642;2022-12-10T08:45:45;36.10;;;20.80;;
3379;SDS011;1703;51.964;7.642;2022-12-10T08:48:12;39.50;;;19.17;;
3379;SDS011;1703;51.964;7.642;2022-12-10T08:50:40;33.77;;;19.53;;
3379;SDS011;1703;51.964;7.642;2022-12-10T08:53:06;35.47;;;19.80;;
3379;SDS011;1703;51.964;7.642;2022-12-10T08:55:37;32.60;;;19.60;;
3379;SDS011;1703;51.964;7.642;2022-12-10T08:58:04;38.60;;;20.17;;
3379;SDS011;1703;51.964;7.642;2022-12-10T09:00:31;31.40;;;18.23;;
3379;SDS011;1703;51.964;7.642;2022-12-10T09:02:58;36.43;;;20.27;;
3379;SDS011;1703;51.964;7.642;2022-12-10T09:05:25;36.70;;;21.40;;
3379;SDS011;1703;51.964;7.642;2022-12-10T09:07:53;38.20;;;21.40;;
3379;SDS011;1703;51.964;7.642;2022-12-10T09:10:20;37.50;;;19.17;;
3379;SDS011;1703;51.964;7.642;2022-12-10T09:12:47;41.03;;;20.47;;
3379;SDS011;1703;51.964;7.642;2022-12-10T09:15:15;34.00;;;20.27;;
3379;SDS011;1703;51.964;7.642;2022-12-10T09:17:42;41.57;;;21.80;;
3379;SDS011;1703;51.964;7.642;2022-12-10T09:20:09;40.20;;;20.83;;
3379;SDS011;1703;51.964;7.642;2022-12-10T09:22:36;40.47;;;19.50;;
3379;SDS011;1703;51.964;7.642;2022-12-10T09:25:05;35.77;;;19.73;;
3379;SDS011;1703;51.964;7.642;2022-12-10T09:27:35;33.70;;;19.27;;
3379;SDS011;1703;51.964;7.642;2022-12-10T09:30:02;37.67;;;20.30;;
3379;SDS011;1703;51.964;7.642;2022-12-10T09:32:30;38.00;;;19.80;;
3379;SDS011;1703;51.964;7.642;2022-12-10T09:34:56;37.43;;;20.00;;
3379;SDS011;1703;51.964;7.642;2022-12-10T09:37:23;28.87;;;17.17;;
3379;SDS011;1703;51.964;7.642;2022-12-10T09:39:50;38.93;;;21.00;;
3379;SDS011;1703;51.964;7.642;2022-12-10T09:42:21;30.00;;;17.50;;
3379;SDS011;1703;51.964;7.642;2022-12-10T09:45:01;31.13;;;17.70;;
3379;SDS011;1703;51.964;7.642;2022-12-10T09:47:35;33.10;;;18.63;;
3379;SDS011;1703;51.964;7.642;2022-12-10T09:50:09;32.13;;;17.83;;
3379;SDS011;1703;51.964;7.642;2022-12-10T09:52:43;30.40;;;15.47;;
3379;SDS011;1703;51.964;7.642;2022-12-10T09:55:14;33.50;;;18.57;;
3379;SDS011;1703;51.964;7.642;2022-12-10T09:57:44;30.17;;;17.27;;
3379;SDS011;1703;51.964;7.642;2022-12-10T10:00:22;27.73;;;15.00;;
3379;SDS011;1703;51.964;7.642;2022-12-10T10:02:51;20.57;;;12.57;;
3379;SDS011;1703;51.964;7.642;2022-12-10T10:05:21;25.77;;;15.00;;
3379;SDS011;1703;51.964;7.642;2022-12-10T10:07:51;26.53;;;14.63;;
3379;SDS011;1703;51.964;7.642;2022-12-10T10:10:22;30.47;;;15.80;;
3379;SDS011;1703;51.964;7.642;2022-12-10T10:12:53;28.00;;;15.77;;
3379;SDS011;1703;51.964;7.642;2022-12-10T10:15:25;26.87;;;16.77;;
3379;SDS011;1703;51.964;7.642;2022-12-10T10:17:56;23.97;;;15.47;;
3379;SDS011;1703;51.964;7.642;2022-12-10T10:20:27;28.33;;;16.30;;
3379;SDS011;1703;51.964;7.642;2022-12-10T10:22:55;23.53;;;13.53;;
3379;SDS011;1703;51.964;7.642;2022-12-10T10:25:25;25.87;;;13.53;;
3379;SDS011;1703;51.964;7.642;2022-12-10T10:27:54;28.80;;;14.90;;
3379;SDS011;1703;51.964;7.642;2022-12-10T10:30:22;25.30;;;14.73;;
3379;SDS011;1703;51.964;7.642;2022-12-10T10:32:50;25.70;;;15.10;;
3379;SDS011;1703;51.964;7.642;2022-12-10T10:35:28;23.07;;;14.63;;
3379;SDS011;1703;51.964;7.642;2022-12-10T10:37:58;24.40;;;16.07;;
3379;SDS011;1703;51.964;7.642;2022-12-10T10:40:28;23.67;;;15.67;;
3379;SDS011;1703;51.964;7.642;2022-12-10T10:42:59;27.27;;;16.40;;
3379;SDS011;1703;51.964;7.642;2022-12-10T10:45:35;30.60;;;14.30;;
3379;SDS011;1703;51.964;7.642;2022-12-10T10:48:06;28.30;;;15.97;;
3379;SDS011;1703;51.964;7.642;2022-12-10T10:50:37;27.67;;;15.77;;
3379;SDS011;1703;51.964;7.642;2022-12-10T10:53:22;27.60;;;17.30;;
3379;SDS011;1703;51.964;7.642;2022-12-10T10:55:54;34.20;;;17.60;;
3379;SDS011;1703;51.964;7.642;2022-12-10T10:58:24;34.30;;;20.43;;
3379;SDS011;1703;51.964;7.642;2022-12-10T11:00:53;39.00;;;21.63;;
3379;SDS011;1703;51.964;7.642;2022-12-10T11:03:26;31.50;;;19.70;;
3379;SDS011;1703;51.964;7.642;2022-12-10T11:05:55;42.00;;;22.30;;
3379;SDS011;1703;51.964;7.642;2022-12-10T11:08:24;38.40;;;21.03;;
3379;SDS011;1703;51.964;7.642;2022-12-10T11:10:55;37.60;;;19.07;;
3379;SDS011;1703;51.964;7.642;2022-12-10T11:13:28;37.03;;;20.47;;
3379;SDS011;1703;51.964;7.642;2022-12-10T11:15:57;31.50;;;18.63;;
3379;SDS011;1703;51.964;7.642;2022-12-10T11:18:30;41.20;;;21.00;;
3379;SDS011;1703;51.964;7.642;2022-12-10T11:21:00;35.67;;;20.87;;
3379;SDS011;1703;51.964;7.642;2022-12-10T11:23:31;36.80;;;21.27;;
3379;SDS011;1703;51.964;7.642;2022-12-10T11:26:09;44.37;;;23.13;;
3379;SDS011;1703;51.964;7.642;2022-12-10T11:28:49;36.70;;;21.03;;
3379;SDS011;1703;51.964;7.642;2022-12-10T11:31:30;41.20;;;23.63;;
3379;SDS011;1703;51.964;7.642;2022-12-10T11:34:06;46.83;;;26.87;;
3379;SDS011;1703;51.964;7.642;2022-12-10T11:36:41;43.03;;;22.77;;
3379;SDS011;1703;51.964;7.642;2022-12-10T11:39:21;39.33;;;19.97;;
3379;SDS011;1703;51.964;7.642;2022-12-10T11:42:05;43.43;;;23.40;;
3379;SDS011;1703;51.964;7.642;2022-12-10T11:44:39;44.73;;;23.13;;
3379;SDS011;1703;51.964;7.642;2022-12-10T11:47:16;49.00;;;23.07;;
3379;SDS011;1703;51.964;7.642;2022-12-10T11:49:58;37.53;;;20.63;;
3379;SDS011;1703;51.964;7.642;2022-12-10T11:52:37;39.10;;;23.77;;
3379;SDS011;1703;51.964;7.642;2022-12-10T11:55:16;40.53;;;22.93;;
3379;SDS011;1703;51.964;7.642;2022-12-10T11:57:51;44.80;;;23.27;;
3379;SDS011;1703;51.964;7.642;2022-12-10T12:00:29;34.30;;;20.83;;
3379;SDS011;1703;51.964;7.642;2022-12-10T12:03:27;46.83;;;24.40;;
3379;SDS011;1703;51.964;7.642;2022-12-10T12:06:12;42.40;;;22.17;;
3379;SDS011;1703;51.964;7.642;2022-12-10T12:08:51;37.07;;;22.07;;
3379;SDS011;1703;51.964;7.642;2022-12-10T12:11:28;43.00;;;24.13;;
3379;SDS011;1703;51.964;7.642;2022-12-10T12:14:07;54.43;;;25.17;;
3379;SDS011;1703;51.964;7.642;2022-12-10T12:16:42;43.70;;;24.60;;
3379;SDS011;1703;51.964;7.642;2022-12-10T12:19:13;48.67;;;24.20;;
3379;SDS011;1703;51.964;7.642;2022-12-10T12:21:43;74.30;;;33.87;;
3379;SDS011;1703;51.964;7.642;2022-12-10T12:24:15;55.43;;;27.73;;
3379;SDS011;1703;51.964;7.642;2022-12-10T12:26:46;50.23;;;28.10;;
3379;SDS011;1703;51.964;7.642;2022-12-10T12:29:18;44.20;;;24.67;;
3379;SDS011;1703;51.964;7.642;2022-12-10T12:31:53;50.60;;;26.50;;
3379;SDS011;1703;51.964;7.642;2022-12-10T12:34:24;63.20;;;28.77;;
3379;SDS011;1703;51.964;7.642;2022-12-10T12:36:55;61.13;;;28.30;;
3379;SDS011;1703;51.964;7.642;2022-12-10T12:39:23;52.10;;;29.27;;
3379;SDS011;1703;51.964;7.642;2022-12-10T12:41:59;54.17;;;27.53;;
3379;SDS011;1703;51.964;7.642;2022-12-10T12:44:34;57.47;;;29.30;;
3379;SDS011;1703;51.964;7.642;2022-12-10T12:47:22;55.43;;;29.27;;
3379;SDS011;1703;51.964;7.642;2022-12-10T12:49:55;61.07;;;28.10;;
3379;SDS011;1703;51.964;7.642;2022-12-10T12:52:26;52.77;;;27.03;;
3379;SDS011;1703;51.964;7.642;2022-12-10T12:55:00;61.60;;;30.27;;
3379;SDS011;1703;51.964;7.642;2022-12-10T12:57:32;50.80;;;29.10;;
3379;SDS011;1703;51.964;7.642;2022-12-10T13:00:09;53.63;;;29.60;;
3379;SDS011;1703;51.964;7.642;2022-12-10T13:02:46;62.90;;;29.47;;
3379;SDS011;1703;51.964;7.642;2022-12-10T13:05:23;61.43;;;30.17;;
3379;SDS011;1703;51.964;7.642;2022-12-10T13:10:50;55.10;;;28.27;;
3379;SDS011;1703;51.964;7.642;2022-12-10T13:13:25;62.10;;;28.77;;
3379;SDS011;1703;51.964;7.642;2022-12-10T13:19:07;54.97;;;26.27;;
3379;SDS011;1703;51.964;7.642;2022-12-10T13:21:57;52.53;;;25.53;;
3379;SDS011;1703;51.964;7.642;2022-12-10T13:27:16;55.67;;;26.90;;
3379;SDS011;1703;51.964;7.642;2022-12-10T13:29:45;62.77;;;28.93;;
3379;SDS011;1703;51.964;7.642;2022-12-10T13:32:20;61.60;;;27.40;;
3379;SDS011;1703;51.964;7.642;2022-12-10T13:35:15;55.63;;;26.93;;
3379;SDS011;1703;51.964;7.642;2022-12-10T13:37:56;65.40;;;29.77;;
3379;SDS011;1703;51.964;7.642;2022-12-10T13:40:37;58.27;;;29.07;;
3379;SDS011;1703;51.964;7.642;2022-12-10T13:43:27;51.47;;;25.50;;
3379;SDS011;1703;51.964;7.642;2022-12-10T13:46:22;58.80;;;28.37;;
3379;SDS011;1703;51.964;7.642;2022-12-10T13:48:51;53.00;;;25.07;;
3379;SDS011;1703;51.964;7.642;2022-12-10T13:57:07;52.40;;;26.63;;
3379;SDS011;1703;51.964;7.642;2022-12-10T13:59:47;57.43;;;28.00;;
3379;SDS011;1703;51.964;7.642;2022-12-10T14:02:24;50.37;;;26.10;;
3379;SDS011;1703;51.964;7.642;2022-12-10T14:05:21;54.57;;;25.80;;
3379;SDS011;1703;51.964;7.642;2022-12-10T14:07:56;60.17;;;27.70;;
3379;SDS011;1703;51.964;7.642;2022-12-10T14:10:30;57.60;;;25.27;;
3379;SDS011;1703;51.964;7.642;2022-12-10T14:12:59;61.17;;;27.47;;
3379;SDS011;1703;51.964;7.642;2022-12-10T14:15:29;53.23;;;25.90;;
3379;SDS011;1703;51.964;7.642;2022-12-10T14:17:59;58.57;;;26.00;;
3379;SDS011;1703;51.964;7.642;2022-12-10T14:20:28;57.57;;;26.43;;
3379;SDS011;1703;51.964;7.642;2022-12-10T14:23:02;62.60;;;29.83;;
3379;SDS011;1703;51.964;7.642;2022-12-10T14:25:45;55.80;;;26.17;;
3379;SDS011;1703;51.964;7.642;2022-12-10T14:28:13;63.07;;;28.07;;
3379;SDS011;1703;51.964;7.642;2022-12-10T14:30:42;63.60;;;29.80;;
3379;SDS011;1703;51.964;7.642;2022-12-10T14:33:10;67.90;;;29.50;;
3379;SDS011;1703;51.964;7.642;2022-12-10T14:35:41;57.93;;;27.90;;
3379;SDS011;1703;51.964;7.642;2022-12-10T14:38:14;66.00;;;29.67;;
3379;SDS011;1703;51.964;7.642;2022-12-10T14:40:45;54.57;;;25.90;;
3379;SDS011;1703;51.964;7.642;2022-12-10T14:43:13;62.47;;;28.30;;
3379;SDS011;1703;51.964;7.642;2022-12-10T14:45:44;49.13;;;25.03;;
3379;SDS011;1703;51.964;7.642;2022-12-10T14:48:15;53.67;;;27.40;;
3379;SDS011;1703;51.964;7.642;2022-12-10T14:50:43;68.83;;;29.53;;
3379;SDS011;1703;51.964;7.642;2022-12-10T14:53:14;54.70;;;27.30;;
3379;SDS011;1703;51.964;7.642;2022-12-10T14:55:42;58.03;;;28.03;;
3379;SDS011;1703;51.964;7.642;2022-12-10T14:58:13;55.30;;;26.50;;
3379;SDS011;1703;51.964;7.642;2022-12-10T15:00:43;63.77;;;27.77;;
3379;SDS011;1703;51.964;7.642;2022-12-10T15:03:11;58.40;;;28.57;;
3379;SDS011;1703;51.964;7.642;2022-12-10T15:05:53;56.83;;;28.60;;
3379;SDS011;1703;51.964;7.642;2022-12-10T15:08:22;61.27;;;26.20;;
3379;SDS011;1703;51.964;7.642;2022-12-10T15:10:52;53.60;;;25.80;;
3379;SDS011;1703;51.964;7.642;2022-12-10T15:13:22;64.90;;;28.23;;
3379;SDS011;1703;51.964;7.642;2022-12-10T15:15:53;54.20;;;27.90;;
3379;SDS011;1703;51.964;7.642;2022-12-10T15:18:21;58.63;;;26.37;;
3379;SDS011;1703;51.964;7.642;2022-12-10T15:20:54;57.43;;;29.80;;
3379;SDS011;1703;51.964;7.642;2022-12-10T15:23:33;50.67;;;26.80;;
3379;SDS011;1703;51.964;7.642;2022-12-10T15:26:03;55.03;;;25.00;;